Time;durP1;ratioP1;P1;durP2;ratioP2;P2;SDS_P1;SDS_P2;PMS_P1;PMS_P2;Temp;Humidity;BMP_temperature;BMP_pressure;BME280_temperature;BME280_humidity;BME280_pressure;Samples;Min_cycle;Max_cycle;Signal;HPM_P1;HPM_P2
2021/08/27 00:05:06;;;;;;;8.02;2.20;;;14.00;99.90;;;;;;12499307;28;20103;-37
2021/08/27 00:11:08;;;;;;;7.43;1.85;;;14.10;99.90;;;;;;12486217;28;20112;-37
2021/08/27 00:17:12;;;;;;;13.27;2.67;;;14.10;99.90;;;;;;12500311;28;20057;-38
2021/08/27 00:23:14;;;;;;;8.23;1.83;;;14.00;99.90;;;;;;12500381;28;20052;-38
2021/08/27 00:29:16;;;;;;;10.80;2.20;;;14.00;99.90;;;;;;12500943;28;20080;-38
2021/08/27 00:35:18;;;;;;;6.47;1.90;;;14.00;99.90;;;;;;12499458;28;20073;-37
2021/08/27 00:41:26;;;;;;;11.48;2.53;;;13.90;99.90;;;;;;12508094;28;20094;-37
2021/08/27 00:47:28;;;;;;;8.40;1.75;;;13.90;99.90;;;;;;12507796;28;20382;-37
2021/08/27 00:53:30;;;;;;;8.90;2.22;;;13.90;99.90;;;;;;12495627;28;20094;-37
2021/08/27 00:59:35;;;;;;;8.45;1.70;;;13.80;99.90;;;;;;12505646;28;20060;-37
2021/08/27 01:05:41;;;;;;;9.68;2.10;;;13.80;99.90;;;;;;12515380;28;20080;-38
2021/08/27 01:12:26;;;;;;;7.68;2.00;;;13.70;99.90;;;;;;12517806;28;20087;-37
2021/08/27 01:18:51;;;;;;;8.20;2.30;;;13.70;99.90;;;;;;12501385;28;20044;-38
2021/08/27 01:24:55;;;;;;;12.60;2.17;;;13.70;99.90;;;;;;12515724;28;20056;-38
2021/08/27 01:31:05;;;;;;;11.75;2.30;;;13.80;99.90;;;;;;12497207;28;20053;-37
2021/08/27 01:37:22;;;;;;;9.60;2.10;;;13.60;99.90;;;;;;12491864;28;20077;-37
2021/08/27 01:43:28;;;;;;;11.38;2.28;;;13.60;99.90;;;;;;12509258;28;20170;-37
2021/08/27 01:49:31;;;;;;;6.60;2.08;;;13.70;99.90;;;;;;12514355;28;20099;-37
2021/08/27 01:55:38;;;;;;;7.47;2.03;;;13.60;99.90;;;;;;12507800;28;20037;-37
2021/08/27 02:01:41;;;;;;;15.85;3.92;;;13.70;99.90;;;;;;12506088;28;20052;-37
2021/08/27 02:07:46;;;;;;;12.55;3.03;;;13.60;99.90;;;;;;12512274;28;20488;-38
2021/08/27 02:13:49;;;;;;;12.90;2.30;;;13.60;99.90;;;;;;12506877;28;20064;-37
2021/08/27 02:19:52;;;;;;;11.38;2.72;;;13.60;99.90;;;;;;12512942;28;20088;-38
2021/08/27 02:25:55;;;;;;;6.88;1.90;;;13.60;99.90;;;;;;12506643;28;20604;-37
2021/08/27 02:32:01;;;;;;;7.28;2.10;;;13.50;99.90;;;;;;12510480;28;20508;-38
2021/08/27 02:38:08;;;;;;;6.88;1.83;;;13.60;99.90;;;;;;12514293;28;20076;-38
2021/08/27 02:44:10;;;;;;;5.82;2.05;;;13.50;99.90;;;;;;12491839;28;20127;-38
2021/08/27 02:50:16;;;;;;;6.78;1.98;;;13.60;99.90;;;;;;12513900;28;21476;-37
2021/08/27 02:56:23;;;;;;;9.10;1.63;;;13.70;99.90;;;;;;12511998;28;20128;-38
2021/08/27 03:02:27;;;;;;;5.63;1.77;;;13.60;99.90;;;;;;12509119;28;20072;-38
2021/08/27 03:08:30;;;;;;;;;;;13.60;99.90;;;;;;12513299;28;20091;-38
2021/08/27 03:14:39;;;;;;;7.53;2.10;;;13.60;99.90;;;;;;12508542;28;20993;-38
2021/08/27 03:20:52;;;;;;;6.85;1.75;;;13.50;99.90;;;;;;12511510;28;20041;-37
2021/08/27 03:27:00;;;;;;;6.82;1.92;;;13.50;99.90;;;;;;12508717;28;20073;-37
2021/08/27 03:33:09;;;;;;;8.38;1.95;;;13.50;99.90;;;;;;12509458;28;20041;-37
2021/08/27 03:39:14;;;;;;;8.63;1.90;;;13.50;99.90;;;;;;12512162;28;20077;-38
2021/08/27 03:45:19;;;;;;;4.55;1.67;;;13.60;99.90;;;;;;12511239;28;20136;-37
2021/08/27 03:51:21;;;;;;;6.18;1.45;;;13.50;99.90;;;;;;12511907;28;20088;-38
2021/08/27 03:57:44;;;;;;;8.48;1.80;;;13.50;99.90;;;;;;12507310;28;20804;-38
2021/08/27 04:04:10;;;;;;;8.90;2.00;;;13.60;99.90;;;;;;12503807;28;20488;-37
2021/08/27 04:10:18;;;;;;;7.80;1.60;;;13.60;99.90;;;;;;12501761;28;20049;-37
2021/08/27 04:16:20;;;;;;;4.50;1.40;;;13.70;99.90;;;;;;12504020;28;20049;-39
2021/08/27 04:22:26;;;;;;;4.50;1.30;;;13.60;99.90;;;;;;12505155;28;20048;-38
2021/08/27 04:28:31;;;;;;;4.82;1.55;;;13.70;99.90;;;;;;12510978;28;20132;-38
2021/08/27 04:34:35;;;;;;;;;;;13.60;99.90;;;;;;12510394;28;20103;-39
2021/08/27 04:40:38;;;;;;;8.05;2.08;;;13.60;99.90;;;;;;12509672;28;19932;-39
2021/08/27 04:46:40;;;;;;;3.33;1.27;;;13.60;99.90;;;;;;12517723;28;20493;-37
2021/08/27 04:52:43;;;;;;;8.15;2.50;;;13.60;99.90;;;;;;12517160;28;20044;-37
2021/08/27 04:58:45;;;;;;;5.57;1.63;;;13.60;99.90;;;;;;12520143;28;20053;-38
2021/08/27 05:04:47;;;;;;;7.75;1.98;;;13.50;99.90;;;;;;12517666;28;20163;-37
2021/08/27 05:10:49;;;;;;;8.93;2.00;;;13.50;99.90;;;;;;12521188;28;20385;-39
2021/08/27 05:16:52;;;;;;;6.05;1.50;;;13.50;99.90;;;;;;12521351;28;20060;-37
2021/08/27 05:22:54;;;;;;;6.70;1.80;;;13.50;99.90;;;;;;12516779;28;20041;-38
2021/08/27 05:28:56;;;;;;;5.20;1.65;;;13.40;99.90;;;;;;12518026;28;20181;-42
2021/08/27 05:35:04;;;;;;;8.05;1.88;;;13.50;99.90;;;;;;12521608;28;20049;-38
2021/08/27 05:41:08;;;;;;;8.52;1.85;;;13.40;99.90;;;;;;12519101;28;20307;-38
2021/08/27 05:47:13;;;;;;;7.25;2.05;;;13.50;99.90;;;;;;12500061;28;20060;-38
2021/08/27 05:53:16;;;;;;;4.95;1.75;;;13.50;99.90;;;;;;12517462;28;20132;-37
2021/08/27 05:59:18;;;;;;;4.60;1.65;;;13.60;99.90;;;;;;12518854;28;20094;-38
2021/08/27 06:05:21;;;;;;;6.20;1.95;;;13.70;99.90;;;;;;12513222;28;20501;-38
2021/08/27 06:11:28;;;;;;;3.63;1.73;;;13.70;99.90;;;;;;12513937;28;20717;-37
2021/08/27 06:17:30;;;;;;;8.60;2.20;;;13.70;99.90;;;;;;12513464;28;20049;-37
2021/08/27 06:23:35;;;;;;;9.60;1.85;;;13.70;99.90;;;;;;12515533;28;20061;-37
2021/08/27 06:29:42;;;;;;;10.95;2.03;;;13.80;99.90;;;;;;12513868;28;20557;-38
2021/08/27 06:35:44;;;;;;;5.10;1.75;;;13.80;99.90;;;;;;12513230;28;20040;-37
2021/08/27 06:41:46;;;;;;;6.50;2.05;;;13.80;99.90;;;;;;12512620;28;20045;-38
2021/08/27 06:47:51;;;;;;;4.32;1.90;;;13.70;99.90;;;;;;12509261;28;20095;-37
2021/08/27 06:53:53;;;;;;;6.43;1.83;;;13.90;99.90;;;;;;12512215;28;20474;-37
2021/08/27 06:59:56;;;;;;;8.07;2.05;;;13.90;99.90;;;;;;12506789;28;20091;-37
2021/08/27 07:06:01;;;;;;;8.70;2.05;;;13.90;99.90;;;;;;12503370;28;20144;-37
2021/08/27 07:12:03;;;;;;;6.88;1.92;;;13.90;99.90;;;;;;12504064;28;20057;-38
2021/08/27 07:18:07;;;;;;;6.45;1.95;;;13.90;99.90;;;;;;12505797;28;20084;-38
2021/08/27 07:24:09;;;;;;;11.90;2.07;;;14.00;99.90;;;;;;12509005;28;20572;-37
2021/08/27 07:30:12;;;;;;;7.20;2.50;;;14.10;99.90;;;;;;12511602;28;20045;-39
2021/08/27 07:36:14;;;;;;;4.90;1.80;;;14.00;99.90;;;;;;12514455;28;20098;-37
2021/08/27 07:42:17;;;;;;;7.63;2.10;;;14.00;99.90;;;;;;12506184;28;20048;-37
2021/08/27 07:48:19;;;;;;;8.52;2.10;;;14.00;99.90;;;;;;12508998;28;20564;-40
2021/08/27 07:54:21;;;;;;;4.72;1.80;;;14.00;99.90;;;;;;12489403;28;20097;-38
2021/08/27 08:00:23;;;;;;;7.38;2.03;;;14.20;99.90;;;;;;12490226;28;20106;-38
2021/08/27 08:06:25;;;;;;;7.45;1.80;;;14.40;99.90;;;;;;12506634;28;20121;-38
2021/08/27 08:12:29;;;;;;;;;;;14.50;99.90;;;;;;12517612;28;20115;-38
2021/08/27 08:18:32;;;;;;;9.02;2.20;;;14.70;99.90;;;;;;12523244;28;20328;-37
2021/08/27 08:24:34;;;;;;;8.65;1.75;;;14.80;99.90;;;;;;12515294;28;20140;-37
2021/08/27 08:30:37;;;;;;;9.00;2.03;;;14.90;99.90;;;;;;12516253;28;20048;-37
2021/08/27 08:36:39;;;;;;;8.85;2.08;;;15.10;99.90;;;;;;12524393;28;20060;-39
2021/08/27 08:42:42;;;;;;;6.57;1.73;;;15.00;99.90;;;;;;12517665;28;20053;-37
2021/08/27 08:48:46;;;;;;;7.25;1.65;;;15.20;99.90;;;;;;12517583;28;20049;-37
2021/08/27 08:54:51;;;;;;;8.27;1.85;;;15.20;99.90;;;;;;12518368;28;20144;-38
2021/08/27 09:00:55;;;;;;;5.00;1.30;;;15.20;99.90;;;;;;12520550;28;20052;-38
2021/08/27 09:06:58;;;;;;;6.27;1.80;;;15.30;99.90;;;;;;12512928;28;20114;-37
2021/08/27 09:13:07;;;;;;;7.28;1.48;;;15.50;99.90;;;;;;12515736;28;20362;-38
2021/08/27 09:19:09;;;;;;;5.57;1.60;;;15.40;99.90;;;;;;12520877;28;20049;-39
2021/08/27 09:25:12;;;;;;;8.30;1.80;;;15.50;99.90;;;;;;12519130;28;20168;-38
2021/08/27 09:31:13;;;;;;;7.20;1.67;;;15.60;99.90;;;;;;12513786;28;20143;-38
2021/08/27 09:37:16;;;;;;;3.63;1.13;;;15.60;99.90;;;;;;12522534;28;20077;-38
2021/08/27 09:43:24;;;;;;;6.05;1.88;;;15.70;99.90;;;;;;12518300;28;20144;-38
2021/08/27 09:49:29;;;;;;;5.15;1.52;;;15.80;99.90;;;;;;12518356;28;20045;-37
2021/08/27 09:55:34;;;;;;;5.47;1.30;;;15.80;99.90;;;;;;12515319;28;20053;-38
2021/08/27 10:01:45;;;;;;;5.15;1.23;;;15.80;99.90;;;;;;12513450;28;20083;-38
2021/08/27 10:07:47;;;;;;;6.05;1.80;;;16.00;99.90;;;;;;12507157;28;20301;-37
2021/08/27 10:13:51;;;;;;;4.60;1.25;;;16.10;99.90;;;;;;12512243;28;20425;-37
2021/08/27 10:19:54;;;;;;;;;;;16.30;99.90;;;;;;12495901;28;20139;-37
2021/08/27 10:26:17;;;;;;;7.20;1.38;;;16.10;99.90;;;;;;12505130;28;19989;-37
2021/08/27 10:32:40;;;;;;;4.45;0.95;;;16.10;99.90;;;;;;12510142;28;20084;-40
2021/08/27 10:38:45;;;;;;;4.90;1.20;;;16.10;99.90;;;;;;12513230;28;20607;-37
2021/08/27 10:44:50;;;;;;;3.58;1.40;;;15.60;99.90;;;;;;12495959;28;20164;-37
2021/08/27 10:50:57;;;;;;;2.70;1.30;;;15.30;99.90;;;;;;12512066;28;20048;-37
2021/08/27 10:57:00;;;;;;;4.32;1.75;;;15.20;99.90;;;;;;12515260;28;20056;-37
2021/08/27 11:03:06;;;;;;;2.53;1.60;;;15.20;99.90;;;;;;12514535;28;20045;-38
2021/08/27 11:09:14;;;;;;;8.18;2.10;;;15.20;99.90;;;;;;12499744;28;20049;-37
2021/08/27 11:15:27;;;;;;;3.53;1.20;;;15.30;99.90;;;;;;12508184;28;20072;-38
2021/08/27 11:21:30;;;;;;;;;;;15.20;99.90;;;;;;12515435;28;20081;-37
2021/08/27 11:27:35;;;;;;;3.60;1.40;;;15.20;99.90;;;;;;12512914;28;19925;-37
2021/08/27 11:33:52;;;;;;;2.58;0.70;;;15.10;99.90;;;;;;12513559;28;20143;-38
2021/08/27 11:39:54;;;;;;;1.70;1.10;;;15.10;99.90;;;;;;12516184;28;20082;-37
2021/08/27 11:46:02;;;;;;;1.50;0.82;;;16.00;99.90;;;;;;12512991;28;20084;-39
2021/08/27 11:52:23;;;;;;;2.95;1.10;;;16.10;99.90;;;;;;12498371;28;20072;-38
2021/08/27 11:58:44;;;;;;;1.52;1.00;;;16.10;99.90;;;;;;12511432;28;20052;-38
2021/08/27 12:04:55;;;;;;;3.33;1.40;;;16.50;99.90;;;;;;12509553;28;20087;-37
2021/08/27 12:11:00;;;;;;;2.20;1.20;;;16.30;99.90;;;;;;12503873;28;20102;-37
2021/08/27 12:17:11;;;;;;;3.63;1.48;;;16.10;99.90;;;;;;12501632;28;20068;-40
2021/08/27 12:23:23;;;;;;;5.53;1.55;;;16.20;99.90;;;;;;12498409;28;20072;-37
2021/08/27 12:29:25;;;;;;;2.90;1.42;;;16.80;99.90;;;;;;12504611;28;20069;-38
2021/08/27 12:35:49;;;;;;;2.85;1.60;;;17.20;99.90;;;;;;12496866;28;20038;-38
2021/08/27 12:41:51;;;;;;;3.17;1.83;;;17.50;99.90;;;;;;12515791;28;20049;-39
2021/08/27 12:48:05;;;;;;;2.50;1.45;;;17.90;99.90;;;;;;12493549;28;20859;-39
2021/08/27 12:54:08;;;;;;;6.43;1.60;;;17.20;99.90;;;;;;12514326;28;20118;-39
2021/08/27 13:00:19;;;;;;;4.78;2.35;;;16.60;99.90;;;;;;12519847;28;20057;-38
2021/08/27 13:06:32;;;;;;;3.72;2.60;;;16.10;99.90;;;;;;12521492;28;20044;-37
2021/08/27 13:12:36;;;;;;;4.40;2.53;;;16.00;99.90;;;;;;12511499;28;20118;-38
2021/08/27 13:18:46;;;;;;;6.72;2.53;;;16.10;99.90;;;;;;12522500;28;20114;-38
2021/08/27 13:25:09;;;;;;;5.30;2.13;;;16.10;99.90;;;;;;12513847;28;20993;-38
2021/08/27 13:31:12;;;;;;;3.53;2.15;;;17.50;99.90;;;;;;12513720;28;20053;-38
2021/08/27 13:37:16;;;;;;;3.53;2.10;;;18.20;99.90;;;;;;12525799;28;20538;-39
2021/08/27 13:43:19;;;;;;;4.80;2.00;;;18.50;99.90;;;;;;12518214;28;20053;-38
2021/08/27 13:49:21;;;;;;;6.40;2.33;;;17.80;99.90;;;;;;12522729;28;20781;-37
2021/08/27 13:55:25;;;;;;;4.40;2.10;;;17.30;99.90;;;;;;12524180;28;20044;-37
2021/08/27 14:01:31;;;;;;;4.20;2.10;;;17.00;99.90;;;;;;12513024;28;21090;-38
2021/08/27 14:07:35;;;;;;;5.43;2.63;;;17.00;99.90;;;;;;12521336;28;20061;-37
2021/08/27 14:13:37;;;;;;;;;;;16.80;99.90;;;;;;12516086;28;20057;-37
2021/08/27 14:19:40;;;;;;;4.03;2.20;;;16.70;99.90;;;;;;12515949;28;19929;-40
2021/08/27 14:25:43;;;;;;;4.17;1.93;;;16.40;99.90;;;;;;12521060;28;20124;-38
2021/08/27 14:31:47;;;;;;;3.42;1.77;;;16.60;99.90;;;;;;12505035;28;20136;-37
2021/08/27 14:37:49;;;;;;;3.10;1.73;;;16.60;99.90;;;;;;12516842;28;20677;-38
2021/08/27 14:43:51;;;;;;;2.83;1.40;;;17.40;99.90;;;;;;12514188;28;20052;-38
2021/08/27 14:49:55;;;;;;;2.83;1.25;;;18.00;99.90;;;;;;12514586;28;20053;-38
2021/08/27 14:55:59;;;;;;;4.05;1.70;;;18.70;99.90;;;;;;12513697;28;20049;-39
2021/08/27 15:02:01;;;;;;;4.43;1.70;;;18.70;99.90;;;;;;12512046;28;20045;-38
2021/08/27 15:08:05;;;;;;;4.97;1.60;;;19.00;99.90;;;;;;12526110;28;20412;-38
2021/08/27 15:14:24;;;;;;;3.78;1.38;;;18.80;99.90;;;;;;12517094;28;20044;-38
2021/08/27 15:20:28;;;;;;;3.03;1.40;;;18.00;99.90;;;;;;12520372;28;20512;-37
2021/08/27 15:26:31;;;;;;;3.85;1.85;;;17.50;99.90;;;;;;12510541;28;20069;-37
2021/08/27 15:32:34;;;;;;;2.85;1.33;;;17.20;99.90;;;;;;12515849;28;20053;-37
2021/08/27 15:38:36;;;;;;;3.15;1.30;;;16.80;99.90;;;;;;12521118;28;20563;-37
2021/08/27 15:44:39;;;;;;;2.35;1.38;;;16.70;99.90;;;;;;12517341;28;20077;-37
2021/08/27 15:50:41;;;;;;;3.67;1.30;;;16.50;99.90;;;;;;12515332;28;20131;-38
2021/08/27 15:56:44;;;;;;;2.58;1.20;;;16.20;99.90;;;;;;12519789;28;20379;-38
2021/08/27 16:02:47;;;;;;;1.98;1.35;;;16.10;99.90;;;;;;12517236;28;20049;-38
2021/08/27 16:08:53;;;;;;;1.98;0.95;;;16.00;99.90;;;;;;12521197;28;20075;-37
2021/08/27 16:14:58;;;;;;;2.92;1.00;;;16.00;99.90;;;;;;12512533;28;20057;-37
2021/08/27 16:21:01;;;;;;;2.25;0.70;;;16.00;99.90;;;;;;12514796;28;20041;-38
2021/08/27 16:27:05;;;;;;;1.67;0.88;;;15.90;99.90;;;;;;12517726;28;20084;-37
2021/08/27 16:33:07;;;;;;;1.80;0.80;;;15.70;99.90;;;;;;12522715;28;20148;-38
2021/08/27 16:39:11;;;;;;;1.27;0.60;;;15.60;99.90;;;;;;12534291;28;20049;-37
2021/08/27 16:45:27;;;;;;;1.75;0.77;;;15.50;99.90;;;;;;12519574;28;20469;-38
2021/08/27 16:51:44;;;;;;;2.83;1.10;;;15.60;99.90;;;;;;12525024;28;20869;-38
2021/08/27 16:57:47;;;;;;;1.30;0.70;;;15.50;99.90;;;;;;12528885;28;20436;-38
2021/08/27 17:03:50;;;;;;;1.75;0.70;;;15.50;99.90;;;;;;12528464;28;20108;-38
2021/08/27 17:09:53;;;;;;;1.60;0.90;;;15.50;99.90;;;;;;12529558;28;20132;-38
2021/08/27 17:15:55;;;;;;;2.80;0.80;;;15.20;99.90;;;;;;12520077;28;20057;-37
2021/08/27 17:21:57;;;;;;;2.92;1.08;;;15.10;99.90;;;;;;12520747;28;20082;-37
2021/08/27 17:28:02;;;;;;;3.35;1.10;;;14.90;99.90;;;;;;12522348;28;20304;-38
2021/08/27 17:34:05;;;;;;;2.20;0.90;;;14.90;99.90;;;;;;12521066;28;20052;-38
2021/08/27 17:40:10;;;;;;;2.58;1.00;;;14.90;99.90;;;;;;12516962;28;20055;-37
2021/08/27 17:46:13;;;;;;;2.80;0.90;;;15.00;99.90;;;;;;12515104;28;20113;-39
2021/08/27 17:52:17;;;;;;;2.88;0.90;;;15.10;99.90;;;;;;12519953;28;20145;-38
2021/08/27 17:58:19;;;;;;;3.00;1.10;;;15.00;99.90;;;;;;12519813;28;20053;-39
2021/08/27 18:04:21;;;;;;;2.28;0.93;;;14.90;99.90;;;;;;12524707;28;20811;-40
2021/08/27 18:10:26;;;;;;;1.85;0.93;;;15.00;99.90;;;;;;12520558;28;20447;-37
2021/08/27 18:16:34;;;;;;;1.55;0.95;;;14.90;99.90;;;;;;12521469;28;20080;-40
2021/08/27 18:22:36;;;;;;;1.80;1.00;;;14.90;99.90;;;;;;12516687;28;20049;-38
2021/08/27 18:28:41;;;;;;;1.60;1.00;;;14.90;99.90;;;;;;12519636;28;21135;-38
2021/08/27 18:34:43;;;;;;;2.00;0.90;;;14.80;99.90;;;;;;12517851;28;20044;-38
2021/08/27 18:40:58;;;;;;;2.03;1.20;;;14.70;99.90;;;;;;12513609;28;20076;-38
2021/08/27 18:47:03;;;;;;;2.13;1.00;;;14.60;99.90;;;;;;12517039;28;20042;-37
2021/08/27 18:53:06;;;;;;;3.47;0.90;;;14.60;99.90;;;;;;12508459;28;20097;-37
2021/08/27 18:59:08;;;;;;;1.67;1.00;;;14.60;99.90;;;;;;12515483;28;20099;-37
2021/08/27 19:05:11;;;;;;;2.80;0.90;;;14.60;99.90;;;;;;12509502;28;20416;-37
2021/08/27 19:11:14;;;;;;;7.60;1.27;;;14.50;99.90;;;;;;12492062;28;20056;-37
2021/08/27 19:17:16;;;;;;;1.63;1.10;;;14.40;99.90;;;;;;12512292;28;20068;-38
2021/08/27 19:23:18;;;;;;;2.08;1.42;;;14.30;99.90;;;;;;12507875;28;20052;-37
2021/08/27 19:29:20;;;;;;;4.90;1.85;;;14.30;99.90;;;;;;12508807;28;20483;-38
2021/08/27 19:35:22;;;;;;;2.22;1.50;;;14.30;99.90;;;;;;12510511;28;20127;-37
2021/08/27 19:41:41;;;;;;;2.30;1.67;;;14.20;99.90;;;;;;12502187;28;20449;-37
2021/08/27 19:47:43;;;;;;;2.42;1.80;;;14.30;99.90;;;;;;12507359;28;20053;-38
2021/08/27 19:53:46;;;;;;;3.45;1.90;;;14.20;99.90;;;;;;12504624;28;20123;-38
2021/08/27 19:59:49;;;;;;;3.83;1.55;;;14.20;99.90;;;;;;12510749;28;20493;-37
2021/08/27 20:05:59;;;;;;;2.58;1.52;;;14.00;99.90;;;;;;12509804;28;20132;-38
2021/08/27 20:12:03;;;;;;;3.38;2.00;;;13.90;99.90;;;;;;12505655;28;20485;-37
2021/08/27 20:18:05;;;;;;;17.20;7.30;;;13.70;99.90;;;;;;12504027;28;20114;-37
2021/08/27 20:24:07;;;;;;;16.38;8.20;;;13.60;99.90;;;;;;12511428;28;20056;-38
2021/08/27 20:30:10;;;;;;;3.35;1.52;;;13.70;99.90;;;;;;12507902;28;20041;-37
2021/08/27 20:36:12;;;;;;;3.05;1.50;;;13.80;99.90;;;;;;12507170;28;20547;-37
2021/08/27 20:42:14;;;;;;;2.33;1.52;;;13.80;99.90;;;;;;12508352;28;20057;-37
2021/08/27 20:55:43;;;;;;;2.63;1.67;;;13.80;99.90;;;;;;12509135;28;20167;-37
2021/08/27 21:01:45;;;;;;;1.83;1.30;;;13.80;99.90;;;;;;12508584;28;20494;-37
2021/08/27 21:07:47;;;;;;;1.98;1.50;;;13.70;99.90;;;;;;12505771;28;20191;-37
2021/08/27 21:13:50;;;;;;;2.63;1.27;;;13.70;99.90;;;;;;12510131;28;20135;-38
2021/08/27 21:19:52;;;;;;;2.10;1.40;;;13.60;99.90;;;;;;12500680;28;20511;-37
2021/08/27 21:25:54;;;;;;;2.60;1.35;;;13.50;99.90;;;;;;12517504;28;20663;-38
2021/08/27 21:31:56;;;;;;;4.20;1.80;;;13.60;99.90;;;;;;12518736;28;20049;-37
2021/08/27 21:37:59;;;;;;;2.60;1.52;;;13.50;99.90;;;;;;12518470;28;20374;-38
2021/08/27 21:44:01;;;;;;;3.92;2.10;;;13.50;99.90;;;;;;12508330;28;20764;-38
2021/08/27 21:50:05;;;;;;;4.22;1.90;;;13.50;99.90;;;;;;12518801;28;20627;-38
2021/08/27 21:56:07;;;;;;;3.53;1.50;;;13.40;99.90;;;;;;12513084;28;20048;-37
2021/08/27 22:02:09;;;;;;;5.35;1.90;;;13.40;99.90;;;;;;12518710;28;20132;-38
2021/08/27 22:08:11;;;;;;;3.03;1.83;;;13.30;99.90;;;;;;12510967;28;20057;-37
2021/08/27 22:14:13;;;;;;;2.65;1.80;;;13.20;99.90;;;;;;12493977;28;20049;-37
2021/08/27 22:20:15;;;;;;;3.30;1.90;;;13.20;99.90;;;;;;12513587;28;20055;-38
2021/08/27 22:26:17;;;;;;;4.43;2.75;;;13.20;99.90;;;;;;12512254;28;20045;-38
2021/08/27 22:32:22;;;;;;;4.93;2.70;;;13.10;99.90;;;;;;12508318;28;20055;-39
2021/08/27 22:38:24;;;;;;;7.60;2.15;;;13.20;99.90;;;;;;12510637;28;20218;-38
2021/08/27 22:44:26;;;;;;;4.80;2.42;;;13.30;99.90;;;;;;12512237;28;20107;-37
2021/08/27 22:50:31;;;;;;;9.52;2.85;;;13.20;99.90;;;;;;12515590;28;20479;-38
2021/08/27 22:56:33;;;;;;;5.55;2.92;;;13.20;99.90;;;;;;12511388;28;20171;-38
2021/08/27 23:02:35;;;;;;;4.70;2.85;;;13.30;99.90;;;;;;12510177;28;20409;-37
2021/08/27 23:08:37;;;;;;;5.22;2.90;;;13.20;99.90;;;;;;12510816;28;20049;-38
2021/08/27 23:14:39;;;;;;;4.70;3.03;;;13.20;99.90;;;;;;12508339;28;20141;-40
2021/08/27 23:20:41;;;;;;;5.75;3.47;;;13.20;99.90;;;;;;12508568;28;20175;-38
2021/08/27 23:26:43;;;;;;;4.13;3.35;;;13.20;99.90;;;;;;12511889;28;20053;-37
2021/08/27 23:32:45;;;;;;;4.43;3.55;;;13.30;99.90;;;;;;12509447;28;20049;-37
2021/08/27 23:38:47;;;;;;;5.13;4.35;;;13.40;99.90;;;;;;12513963;28;20147;-38
2021/08/27 23:44:49;;;;;;;9.45;4.95;;;13.30;99.90;;;;;;12508531;28;20089;-37
2021/08/27 23:50:51;;;;;;;4.97;3.97;;;13.40;99.90;;;;;;12507229;28;20049;-38
2021/08/27 23:56:55;;;;;;;5.45;3.58;;;13.40;99.90;;;;;;12509139;28;20091;-37
